Arnaudville, Louisiana
Current Conditions -  °F | °C
As of 12:13 AM on Friday 19 Dec 2014 (Local Time) from KLFT Reporting Station
Haze Haze  
Wind Chill: 57°   Ceiling: 1100
Heat Index: 57°   Visibility: 3mi
Dew Point: 54°   Wind: 8mph
Humidity: 89%   Direction: 50°NE
Pressure: 30.07"   Gusts: NA
Location:  30.4°N, 91.93°W
Report Text: KLFT 190613Z 05007KT 3SM BR FEW006 OVC011 14/12 A3007 RMK AO2 PRESFR T01390122
Loading
Personal Weather Stations






























Interactive Weather Map New forecast layout! Learn more

10-Day Weather Forecast

Advertisements
Track Severe Weather on mobile